Main page
METAR-TAF:

METAR-TAF

Airports :

Chandigarh International Airport

Chandigarh, India

latitude: 30-40-29N, longitude: 76-47-26E, elevation: 314 m

METAR: missing

Time: 11:00 (05:30 UTC)

Forecast

The report was made 8 hours and 0 minutes ago, at 21:30 UTC
Forecast valid from 15 at 00 UTC to 15 at 12 UTC
Wind 2 kt from variable directions
Visibility: 1200 m
Scattered clouds at a height of 10000 ft
mist
Becoming
from 15 at 03 UTC to 15 at 04 UTC
Wind 3 kt from the South/Southeast
Visibility: 3000 m
mist
Becoming
from 15 at 05 UTC to 15 at 06 UTC
Visibility: 5000 m
haze
From UTC
Wind 10 kt from the Northwest
Visibility: 6000 m
Few clouds at a height of 3000 ft
Scattered clouds at a height of 25000 ft

TAF: VICG 142130Z 1500/1512 VRB02KT 1200 BR SCT100 BECMG 1503/1504 16003KT 3000 BR BECMG 1505/1506 5000 HZ FM 150700Z 32010KT 6000 FEW030 SCT250

Weather observations and forecasts of more than 4000 airports (METAR and TAF reports).

The available stations are represented by yellow and red dots on the map.

Hover mouse over dot to see the name of the station.

Then click to see weather observations and forecasts.

To change the map : click on the green buttons with a black cross to zoom in, on the green button with a dash to zoom out, or on the green arrows for adjacent maps.


METAR-TAF: